createdAt,value
2023-01-29T00:00:19.962Z,100739.38
2023-01-29T00:02:50.314Z,100737.50
2023-01-29T00:05:27.762Z,100748.94
2023-01-29T00:07:57.428Z,100746.22
2023-01-29T00:10:26.758Z,100753.25
2023-01-29T00:12:55.415Z,100755.81
2023-01-29T00:15:23.994Z,100743.44
2023-01-29T00:17:53.920Z,100748.72
2023-01-29T00:20:22.524Z,100747.81
2023-01-29T00:22:50.975Z,100739.81
2023-01-29T00:25:19.537Z,100745.19
2023-01-29T00:27:48.185Z,100742.41
2023-01-29T00:30:19.912Z,100741.47
2023-01-29T00:32:48.816Z,100746.75
2023-01-29T00:35:18.951Z,100758.13
2023-01-29T00:37:48.038Z,100743.22
2023-01-29T00:40:17.253Z,100735.28
2023-01-29T00:43:04.574Z,100726.44
2023-01-29T00:45:33.828Z,100730.88
2023-01-29T00:48:02.494Z,100727.31
2023-01-29T00:50:33.064Z,100725.44
2023-01-29T00:53:01.640Z,100729.88
2023-01-29T00:55:30.132Z,100737.75
2023-01-29T00:57:58.702Z,100722.75
2023-01-29T01:00:27.283Z,100723.56
2023-01-29T01:03:06.966Z,100721.06
2023-01-29T01:05:39.292Z,100718.41
2023-01-29T01:08:29.228Z,100724.47
2023-01-29T01:11:02.406Z,100716.63
2023-01-29T01:13:32.617Z,100708.63
2023-01-29T01:16:01.160Z,100710.34
2023-01-29T01:18:32.006Z,100705.06
2023-01-29T01:21:01.941Z,100705.06
2023-01-29T01:23:30.403Z,100705.88
2023-01-29T01:25:59.347Z,100694.38
2023-01-29T01:28:28.461Z,100696.16
2023-01-29T01:30:56.992Z,100697.00
2023-01-29T01:33:25.575Z,100686.50
2023-01-29T01:35:54.099Z,100685.50
2023-01-29T01:38:24.391Z,100674.03
2023-01-29T01:40:52.820Z,100683.66
2023-01-29T01:43:22.109Z,100672.19
2023-01-29T01:45:50.602Z,100676.69
2023-01-29T01:48:23.142Z,100667.81
2023-01-29T01:50:55.076Z,100668.69
2023-01-29T01:53:31.046Z,100673.06
2023-01-29T01:56:05.078Z,100668.63
2023-01-29T01:58:38.536Z,100671.25
2023-01-29T02:01:09.669Z,100669.41
2023-01-29T02:04:01.801Z,100667.63
2023-01-29T02:06:49.291Z,100662.28
2023-01-29T02:09:36.981Z,100664.94
2023-01-29T02:12:08.054Z,100661.34
2023-01-29T02:14:40.375Z,100662.16
2023-01-29T02:17:11.936Z,100656.06
2023-01-29T02:19:49.509Z,100655.16
2023-01-29T02:22:48.413Z,100660.38
2023-01-29T02:25:54.249Z,100655.94
2023-01-29T02:28:31.617Z,100658.56
2023-01-29T02:31:09.625Z,100659.47
2023-01-29T02:33:49.011Z,100652.38
2023-01-29T02:36:24.556Z,100644.47
2023-01-29T02:39:01.968Z,100641.69
2023-01-29T02:41:35.743Z,100635.53
2023-01-29T02:44:12.012Z,100639.03
2023-01-29T02:46:47.911Z,100642.47
2023-01-29T02:49:24.827Z,100645.97
2023-01-29T02:52:00.931Z,100644.97
2023-01-29T02:54:35.811Z,100643.19
2023-01-29T02:57:16.434Z,100652.84
2023-01-29T02:59:51.399Z,100645.78
2023-01-29T03:02:27.523Z,100644.81
2023-01-29T03:05:04.316Z,100636.91
2023-01-29T03:07:52.304Z,100639.50
2023-01-29T03:10:36.639Z,100635.91
2023-01-29T03:13:11.209Z,100626.94
2023-01-29T03:15:47.191Z,100626.06
2023-01-29T03:18:46.120Z,100631.28
2023-01-29T03:21:39.117Z,100615.31
2023-01-29T03:24:29.857Z,100614.50
2023-01-29T03:27:20.669Z,100604.78
2023-01-29T03:30:08.756Z,100604.66
2023-01-29T03:32:53.361Z,100596.59
2023-01-29T03:35:35.639Z,100605.38
2023-01-29T03:38:07.608Z,100606.28
2023-01-29T03:40:54.369Z,100602.78
2023-01-29T03:43:33.541Z,100601.00
2023-01-29T03:46:09.430Z,100590.44
2023-01-29T03:48:45.996Z,100590.53
2023-01-29T03:51:26.511Z,100586.94
2023-01-29T03:54:00.929Z,100586.94
2023-01-29T03:56:41.279Z,100583.38
2023-01-29T03:59:21.079Z,100588.69
2023-01-29T04:02:28.246Z,100576.22
2023-01-29T04:05:07.676Z,100577.97
2023-01-29T04:07:46.440Z,100578.81
2023-01-29T04:10:20.524Z,100572.66
2023-01-29T04:12:54.086Z,100566.44
2023-01-29T04:15:25.806Z,100571.66
2023-01-29T04:17:57.270Z,100568.97
2023-01-29T04:20:38.149Z,100574.25
2023-01-29T04:23:08.805Z,100578.59
2023-01-29T04:25:47.283Z,100574.16
2023-01-29T04:28:23.581Z,100573.25
2023-01-29T04:30:58.472Z,100548.69
2023-01-29T04:33:39.193Z,100552.16
2023-01-29T04:36:19.817Z,100542.38
2023-01-29T04:38:59.247Z,100548.38
2023-01-29T04:41:35.490Z,100547.53
2023-01-29T04:44:13.123Z,100536.00
2023-01-29T04:46:49.811Z,100547.38
2023-01-29T04:49:31.621Z,100535.94
2023-01-29T04:52:10.287Z,100543.81
2023-01-29T04:54:52.441Z,100538.53
2023-01-29T04:57:27.813Z,100530.50
2023-01-29T05:00:05.005Z,100528.88
2023-01-29T05:02:38.579Z,100534.88
2023-01-29T05:05:08.583Z,100530.44
2023-01-29T05:07:40.988Z,100524.22
2023-01-29T05:10:13.950Z,100523.31
2023-01-29T05:12:48.385Z,100526.75
2023-01-29T05:15:24.887Z,100536.38
2023-01-29T05:17:54.306Z,100531.09
2023-01-29T05:20:23.468Z,100531.88
2023-01-29T05:22:53.868Z,100530.13
2023-01-29T05:25:25.111Z,100523.09
2023-01-29T05:28:06.343Z,100512.56
2023-01-29T05:30:37.384Z,100507.28
2023-01-29T05:33:13.869Z,100513.38
2023-01-29T05:35:43.095Z,100506.28
2023-01-29T05:38:17.565Z,100506.28
2023-01-29T05:40:46.810Z,100506.22
2023-01-29T05:43:19.963Z,100506.22
2023-01-29T05:45:54.365Z,100504.34
2023-01-29T05:48:23.906Z,100503.50
2023-01-29T05:50:53.140Z,100506.91
2023-01-29T05:53:23.512Z,100500.78
2023-01-29T05:55:52.308Z,100499.84
2023-01-29T05:58:21.286Z,100505.06
2023-01-29T06:00:50.447Z,100502.34
2023-01-29T06:03:19.434Z,100497.06
2023-01-29T06:05:49.701Z,100498.78
2023-01-29T06:08:18.421Z,100489.13
2023-01-29T06:10:48.823Z,100502.25
2023-01-29T06:13:18.327Z,100484.59
2023-01-29T06:15:47.278Z,100491.63
2023-01-29T06:18:16.204Z,100488.03
2023-01-29T06:20:45.070Z,100492.41
2023-01-29T06:23:13.993Z,100480.88
2023-01-29T06:25:42.711Z,100489.75
2023-01-29T06:28:13.052Z,100491.47
2023-01-29T06:30:47.356Z,100489.66
2023-01-29T06:33:16.251Z,100486.03
2023-01-29T06:35:44.967Z,100483.38
2023-01-29T06:38:13.766Z,100476.28
2023-01-29T06:40:43.092Z,100475.28
2023-01-29T06:43:13.406Z,100469.06
2023-01-29T06:45:48.957Z,100470.66
2023-01-29T06:48:17.975Z,100468.00
2023-01-29T06:50:47.192Z,100474.03
2023-01-29T06:53:16.027Z,100471.41
2023-01-29T06:55:45.550Z,100478.41
2023-01-29T06:58:15.838Z,100471.41
2023-01-29T07:00:44.837Z,100471.28
2023-01-29T07:03:13.447Z,100472.97
2023-01-29T07:05:42.181Z,100467.53
2023-01-29T07:08:11.988Z,100460.44
2023-01-29T07:10:40.795Z,100455.06
2023-01-29T07:13:09.437Z,100458.50
2023-01-29T07:15:39.671Z,100448.63
2023-01-29T07:18:12.758Z,100451.25
2023-01-29T07:20:42.671Z,100445.22
2023-01-29T07:23:13.752Z,100443.31
2023-01-29T07:25:42.152Z,100441.41
2023-01-29T07:28:10.882Z,100432.59
2023-01-29T07:30:41.114Z,100431.59
2023-01-29T07:33:11.522Z,100426.13
2023-01-29T07:35:41.923Z,100426.13
2023-01-29T07:38:12.076Z,100424.28
2023-01-29T07:40:40.754Z,100418.03
2023-01-29T07:43:10.660Z,100415.22
2023-01-29T07:45:42.583Z,100418.66
2023-01-29T07:48:13.681Z,100412.16
2023-01-29T07:50:42.492Z,100416.72
2023-01-29T07:53:15.221Z,100411.50
2023-01-29T07:55:46.503Z,100412.16
2023-01-29T07:58:15.499Z,100411.19
2023-01-29T08:00:45.705Z,100423.47
2023-01-29T08:03:16.409Z,100404.78
2023-01-29T08:05:45.632Z,100402.06
2023-01-29T08:08:14.767Z,100394.97
2023-01-29T08:10:44.081Z,100405.38
2023-01-29T08:13:13.120Z,100405.47
2023-01-29T08:15:46.582Z,100398.38
2023-01-29T08:18:17.166Z,100400.09
2023-01-29T08:20:45.973Z,100398.22
2023-01-29T08:23:16.898Z,100394.63
2023-01-29T08:25:45.847Z,100389.44
2023-01-29T08:28:14.578Z,100391.00
2023-01-29T08:30:45.461Z,100389.19
2023-01-29T08:33:14.071Z,100387.31
2023-01-29T08:35:42.669Z,100389.97
2023-01-29T08:38:14.345Z,100381.00
2023-01-29T08:40:43.146Z,100367.66
2023-01-29T08:43:13.534Z,100366.81
2023-01-29T08:45:45.339Z,100365.78
2023-01-29T08:48:13.962Z,100362.19
2023-01-29T08:50:46.157Z,100367.50
2023-01-29T08:53:15.749Z,100371.75
2023-01-29T08:55:44.270Z,100373.50
2023-01-29T08:58:13.694Z,100364.59
2023-01-29T09:00:42.262Z,100363.75
2023-01-29T09:03:12.327Z,100368.88
2023-01-29T09:05:42.554Z,100368.13
2023-01-29T09:08:12.622Z,100363.56
2023-01-29T09:10:41.324Z,100368.97
2023-01-29T09:13:10.031Z,100371.53
2023-01-29T09:15:38.591Z,100368.88
2023-01-29T09:18:07.635Z,100378.63
2023-01-29T09:20:38.447Z,100386.50
2023-01-29T09:23:08.695Z,100375.91
2023-01-29T09:25:37.521Z,100379.31
2023-01-29T09:28:06.833Z,100377.41
2023-01-29T09:30:37.962Z,100375.53
2023-01-29T09:33:07.372Z,100377.41
2023-01-29T09:35:37.636Z,100371.97
2023-01-29T09:38:06.152Z,100374.63
2023-01-29T09:40:43.134Z,100380.59
2023-01-29T09:43:18.287Z,100370.94
2023-01-29T09:45:55.447Z,100369.09
2023-01-29T09:48:26.752Z,100365.56
2023-01-29T09:50:59.446Z,100354.03
2023-01-29T09:53:37.066Z,100339.78
2023-01-29T09:56:10.611Z,100336.09
2023-01-29T09:58:41.291Z,100336.09
2023-01-29T10:01:15.492Z,100325.50
2023-01-29T10:04:23.997Z,100319.19
2023-01-29T10:07:12.007Z,100313.88
2023-01-29T10:10:13.388Z,100307.63
2023-01-29T10:12:56.015Z,100298.84
2023-01-29T10:15:52.529Z,100301.47
2023-01-29T10:18:58.522Z,100291.06
2023-01-29T10:21:43.495Z,100292.75
2023-01-29T10:24:25.669Z,100277.06
2023-01-29T10:26:54.454Z,100275.25
2023-01-29T10:29:23.528Z,100278.00
2023-01-29T10:31:57.057Z,100275.19
2023-01-29T10:34:32.024Z,100273.28
2023-01-29T10:37:01.411Z,100264.31
2023-01-29T10:39:33.324Z,100253.63
2023-01-29T10:42:13.547Z,100257.03
2023-01-29T10:44:54.380Z,100249.09
2023-01-29T10:47:40.683Z,100243.72
2023-01-29T10:50:33.944Z,100238.31
2023-01-29T10:53:22.566Z,100229.63
2023-01-29T10:56:17.404Z,100219.03
2023-01-29T10:58:53.709Z,100218.91
2023-01-29T11:01:22.285Z,100218.00
2023-01-29T11:03:58.764Z,100210.97
2023-01-29T11:06:31.720Z,100201.22
2023-01-29T11:09:08.482Z,100195.06
2023-01-29T11:11:45.709Z,100192.16
2023-01-29T11:14:18.112Z,100187.72
2023-01-29T11:16:49.201Z,100189.44
2023-01-29T11:19:17.746Z,100191.22
2023-01-29T11:21:54.592Z,100185.91
2023-01-29T11:24:23.155Z,100178.72
2023-01-29T11:26:57.462Z,100170.78
2023-01-29T11:29:44.406Z,100153.84
2023-01-29T11:32:16.416Z,100152.16
2023-01-29T11:35:06.070Z,100151.31
2023-01-29T11:37:38.075Z,100139.84
2023-01-29T11:40:37.695Z,100140.59
2023-01-29T11:43:29.716Z,100134.38
2023-01-29T11:46:02.181Z,100129.16
2023-01-29T11:48:42.348Z,100128.22
2023-01-29T11:51:21.432Z,100128.13
2023-01-29T11:53:54.083Z,100121.69
2023-01-29T11:56:28.557Z,100128.03
2023-01-29T11:59:00.184Z,100126.31
2023-01-29T12:01:36.591Z,100128.97
2023-01-29T12:04:16.370Z,100125.38
2023-01-29T12:06:49.055Z,100128.97
2023-01-29T12:09:21.249Z,100114.88
2023-01-29T12:11:49.814Z,100128.97
2023-01-29T12:14:33.683Z,100141.38
2023-01-29T12:17:07.715Z,100121.97
2023-01-29T12:19:42.942Z,100121.97
2023-01-29T12:22:17.606Z,100124.63
2023-01-29T12:24:55.250Z,100107.88
2023-01-29T12:27:28.467Z,100110.41
2023-01-29T12:30:06.426Z,100106.00
2023-01-29T12:32:46.065Z,100104.28
2023-01-29T12:35:21.472Z,100113.84
2023-01-29T12:37:57.060Z,100121.00
2023-01-29T12:40:30.786Z,100108.53
2023-01-29T12:43:05.568Z,100100.69
2023-01-29T12:45:38.071Z,100107.75
2023-01-29T12:48:11.731Z,100108.53
2023-01-29T12:50:40.867Z,100100.50
2023-01-29T12:53:19.628Z,100103.16
2023-01-29T12:55:55.559Z,100090.75
2023-01-29T12:58:29.929Z,100085.53
2023-01-29T13:01:09.817Z,100078.47
2023-01-29T13:03:51.223Z,100082.03
2023-01-29T13:06:25.083Z,100084.59
2023-01-29T13:08:57.645Z,100077.59
2023-01-29T13:11:29.547Z,100078.47
2023-01-29T13:14:02.523Z,100080.34
2023-01-29T13:16:38.975Z,100080.34
2023-01-29T13:19:16.176Z,100087.44
2023-01-29T13:21:46.187Z,100086.56
2023-01-29T13:24:17.949Z,100084.97
2023-01-29T13:26:47.721Z,100084.03
2023-01-29T13:29:23.980Z,100079.56
2023-01-29T13:31:55.710Z,100076.09
2023-01-29T13:34:26.256Z,100066.53
2023-01-29T13:36:58.721Z,100068.22
2023-01-29T13:39:31.788Z,100061.13
2023-01-29T13:42:02.613Z,100058.38
2023-01-29T13:44:35.308Z,100052.31
2023-01-29T13:47:07.464Z,100047.09
2023-01-29T13:49:40.057Z,100030.28
2023-01-29T13:52:18.802Z,100037.25
2023-01-29T13:54:58.723Z,100038.16
2023-01-29T13:57:57.974Z,100025.81
2023-01-29T14:00:57.658Z,100023.94
2023-01-29T14:04:04.833Z,100019.47
2023-01-29T14:06:53.104Z,100001.91
2023-01-29T14:09:57.045Z,100000.09
2023-01-29T14:12:46.247Z,99986.84
2023-01-29T14:15:27.282Z,99978.13
2023-01-29T14:18:16.399Z,99990.44
2023-01-29T14:21:00.095Z,99993.09
2023-01-29T14:23:36.006Z,100008.03
2023-01-29T14:26:07.627Z,99999.13
2023-01-29T14:28:36.883Z,100000.09
2023-01-29T14:31:07.809Z,99999.25
2023-01-29T14:33:41.019Z,99986.00
2023-01-29T14:36:15.224Z,99988.53
2023-01-29T14:38:50.345Z,99991.19
2023-01-29T14:41:27.103Z,99982.38
2023-01-29T14:44:29.139Z,99971.72
2023-01-29T14:46:57.760Z,99964.69
2023-01-29T14:49:55.370Z,99967.34
2023-01-29T14:52:34.095Z,99964.69
2023-01-29T14:55:08.722Z,99958.66
2023-01-29T14:57:38.978Z,99956.75
2023-01-29T15:00:18.777Z,99948.78
2023-01-29T15:02:48.361Z,99941.81
2023-01-29T15:05:21.227Z,99939.16
2023-01-29T15:07:58.519Z,99940.97
2023-01-29T15:10:44.172Z,99932.91
2023-01-29T15:13:21.462Z,99932.91
2023-01-29T15:15:55.900Z,99937.47
2023-01-29T15:18:33.206Z,99928.56
2023-01-29T15:21:05.799Z,99927.72
2023-01-29T15:23:36.204Z,99918.03
2023-01-29T15:26:07.695Z,99913.50
2023-01-29T15:28:37.202Z,99915.31
2023-01-29T15:31:10.072Z,99900.38
2023-01-29T15:33:39.842Z,99903.75
2023-01-29T15:36:09.646Z,99894.19
2023-01-29T15:38:39.765Z,99888.91
2023-01-29T15:41:19.439Z,99888.72
2023-01-29T15:43:50.237Z,99890.50
2023-01-29T15:46:24.362Z,99880.66
2023-01-29T15:48:55.051Z,99882.38
2023-01-29T15:51:26.738Z,99873.47
2023-01-29T15:53:59.874Z,99875.16
2023-01-29T15:56:31.274Z,99864.56
2023-01-29T15:59:04.027Z,99846.00
2023-01-29T16:01:34.563Z,99840.00
2023-01-29T16:04:04.610Z,99837.22
2023-01-29T16:06:39.321Z,99830.03
2023-01-29T16:09:12.041Z,99834.47
2023-01-29T16:11:42.081Z,99831.72
2023-01-29T16:14:15.222Z,99825.56
2023-01-29T16:16:45.747Z,99822.84
2023-01-29T16:19:24.722Z,99818.38
2023-01-29T16:21:58.882Z,99811.38
2023-01-29T16:24:31.444Z,99800.78
2023-01-29T16:27:02.362Z,99801.50
2023-01-29T16:29:34.283Z,99799.81
2023-01-29T16:32:06.475Z,99797.94
2023-01-29T16:34:39.466Z,99791.88
2023-01-29T16:37:17.946Z,99784.78
2023-01-29T16:39:50.844Z,99782.97
2023-01-29T16:42:28.754Z,99772.38
2023-01-29T16:45:02.517Z,99769.53
2023-01-29T16:47:34.486Z,99773.88
2023-01-29T16:50:26.075Z,99769.41
2023-01-29T16:53:03.529Z,99765.16
2023-01-29T16:55:40.274Z,99743.13
2023-01-29T16:58:14.878Z,99745.47
2023-01-29T17:00:47.274Z,99745.47
2023-01-29T17:03:19.409Z,99751.53
2023-01-29T17:05:52.961Z,99741.84
2023-01-29T17:08:27.839Z,99738.16
2023-01-29T17:10:56.538Z,99723.97
2023-01-29T17:13:30.937Z,99725.66
2023-01-29T17:16:03.032Z,99725.56
2023-01-29T17:18:31.920Z,99719.28
2023-01-29T17:21:00.787Z,99732.38
2023-01-29T17:23:30.896Z,99726.19
2023-01-29T17:26:01.317Z,99733.09
2023-01-29T17:28:31.115Z,99718.16
2023-01-29T17:31:06.349Z,99716.34
2023-01-29T17:33:37.111Z,99707.53
2023-01-29T17:36:07.174Z,99703.09
2023-01-29T17:38:37.429Z,99700.22
2023-01-29T17:41:10.490Z,99698.44
2023-01-29T17:43:39.960Z,99689.53
2023-01-29T17:46:15.111Z,99689.53
2023-01-29T17:48:44.699Z,99687.84
2023-01-29T17:51:19.145Z,99673.53
2023-01-29T17:53:49.248Z,99676.34
2023-01-29T17:56:19.615Z,99670.00
2023-01-29T17:58:48.300Z,99665.66
2023-01-29T18:01:17.478Z,99666.41
2023-01-29T18:03:46.449Z,99658.47
2023-01-29T18:06:27.769Z,99654.97
2023-01-29T18:08:57.909Z,99649.53
2023-01-29T18:11:26.871Z,99637.25
2023-01-29T18:13:55.430Z,99624.00
2023-01-29T18:16:24.482Z,99623.03
2023-01-29T18:18:53.901Z,99617.63
2023-01-29T18:21:22.951Z,99607.88
2023-01-29T18:23:51.451Z,99612.44
2023-01-29T18:26:22.487Z,99612.31
2023-01-29T18:28:51.445Z,99605.31
2023-01-29T18:31:19.993Z,99589.31
2023-01-29T18:33:48.798Z,99589.22
2023-01-29T18:36:17.671Z,99581.13
2023-01-29T18:38:46.628Z,99573.19
2023-01-29T18:41:15.284Z,99565.34
2023-01-29T18:43:45.523Z,99560.91
2023-01-29T18:46:14.135Z,99555.69
2023-01-29T18:48:43.015Z,99550.28
2023-01-29T18:51:12.088Z,99547.63
2023-01-29T18:53:40.605Z,99533.22
2023-01-29T18:56:09.606Z,99537.88
2023-01-29T18:58:38.314Z,99520.06
2023-01-29T19:01:12.225Z,99521.66
2023-01-29T19:03:41.291Z,99524.28
2023-01-29T19:06:11.826Z,99506.56
2023-01-29T19:08:41.447Z,99502.84
2023-01-29T19:11:12.753Z,99493.22
2023-01-29T19:13:42.986Z,99495.75
2023-01-29T19:16:13.705Z,99479.97
2023-01-29T19:18:42.593Z,99484.28
2023-01-29T19:21:12.987Z,99470.81
2023-01-29T19:23:42.381Z,99467.22
2023-01-29T19:26:11.774Z,99467.22
2023-01-29T19:28:40.757Z,99462.84
2023-01-29T19:31:10.298Z,99470.81
2023-01-29T19:33:40.933Z,99458.28
2023-01-29T19:36:10.289Z,99461.69
2023-01-29T19:38:40.342Z,99451.19
2023-01-29T19:41:09.160Z,99449.16
2023-01-29T19:43:38.892Z,99450.25
2023-01-29T19:46:07.973Z,99438.56
2023-01-29T19:48:36.676Z,99438.56
2023-01-29T19:51:10.025Z,99437.81
2023-01-29T19:53:40.125Z,99435.16
2023-01-29T19:56:14.508Z,99417.34
2023-01-29T19:58:43.339Z,99412.28
2023-01-29T20:01:17.745Z,99405.06
2023-01-29T20:03:47.936Z,99397.59
2023-01-29T20:06:21.808Z,99391.34
2023-01-29T20:08:53.521Z,99389.75
2023-01-29T20:11:23.830Z,99383.13
2023-01-29T20:13:54.198Z,99382.31
2023-01-29T20:16:23.308Z,99367.38
2023-01-29T20:19:13.988Z,99357.34
2023-01-29T20:21:50.537Z,99357.47
2023-01-29T20:24:19.677Z,99352.16
2023-01-29T20:26:48.372Z,99347.72
2023-01-29T20:29:17.385Z,99336.13
2023-01-29T20:31:46.457Z,99338.78
2023-01-29T20:34:17.824Z,99339.63
2023-01-29T20:36:48.175Z,99329.84
2023-01-29T20:39:17.183Z,99330.59
2023-01-29T20:41:46.660Z,99335.16
2023-01-29T20:44:15.648Z,99323.72
2023-01-29T20:46:44.357Z,99317.34
2023-01-29T20:49:13.319Z,99304.81
2023-01-29T20:51:42.240Z,99307.69
2023-01-29T20:54:15.173Z,99303.97
2023-01-29T20:56:45.150Z,99292.72
2023-01-29T20:59:15.605Z,99287.22
2023-01-29T21:01:45.619Z,99275.78
2023-01-29T21:04:16.825Z,99277.69
2023-01-29T21:06:48.742Z,99263.44
2023-01-29T21:09:20.829Z,99261.78
2023-01-29T21:11:50.484Z,99244.88
2023-01-29T21:14:19.126Z,99246.59
2023-01-29T21:16:49.200Z,99242.22
2023-01-29T21:19:21.708Z,99239.00
2023-01-29T21:21:56.208Z,99214.03
2023-01-29T21:24:28.090Z,99213.16
2023-01-29T21:26:57.584Z,99201.00
2023-01-29T21:29:26.635Z,99184.13
2023-01-29T21:31:55.300Z,99176.44
2023-01-29T21:34:24.473Z,99175.00
2023-01-29T21:36:57.350Z,99165.56
2023-01-29T21:39:28.666Z,99157.72
2023-01-29T21:42:17.350Z,99160.38
2023-01-29T21:44:46.394Z,99147.84
2023-01-29T21:47:15.214Z,99147.25
2023-01-29T21:49:45.196Z,99131.44
2023-01-29T21:52:17.767Z,99131.44
2023-01-29T21:54:49.345Z,99129.53
2023-01-29T21:57:19.229Z,99115.66
2023-01-29T21:59:52.823Z,99109.41
2023-01-29T22:02:23.287Z,99106.63
2023-01-29T22:04:54.194Z,99089.59
2023-01-29T22:07:23.644Z,99087.09
2023-01-29T22:09:54.396Z,99081.91
2023-01-29T22:12:23.809Z,99075.78
2023-01-29T22:14:52.765Z,99061.53
2023-01-29T22:17:23.581Z,99060.84
2023-01-29T22:19:53.873Z,99046.84
2023-01-29T22:22:25.764Z,99038.66
2023-01-29T22:24:58.024Z,99027.19
2023-01-29T22:27:27.965Z,99029.97
2023-01-29T22:29:57.081Z,99019.50
2023-01-29T22:32:29.372Z,99013.69
2023-01-29T22:34:58.686Z,99010.22
2023-01-29T22:37:27.754Z,98997.78
2023-01-29T22:39:59.556Z,98999.38
2023-01-29T22:42:35.725Z,98988.28
2023-01-29T22:45:07.539Z,98993.47
2023-01-29T22:47:39.291Z,98982.97
2023-01-29T22:50:10.837Z,98975.28
2023-01-29T22:52:54.389Z,98971.31
2023-01-29T22:55:28.016Z,98966.59
2023-01-29T22:57:56.994Z,98956.97
2023-01-29T23:00:28.934Z,98953.59
2023-01-29T23:03:03.524Z,98950.22
2023-01-29T23:05:36.164Z,98941.44
2023-01-29T23:08:08.028Z,98943.25
2023-01-29T23:10:38.890Z,98937.94
2023-01-29T23:13:07.412Z,98930.00
2023-01-29T23:15:36.077Z,98918.41
2023-01-29T23:18:05.125Z,98922.03
2023-01-29T23:20:33.781Z,98909.75
2023-01-29T23:23:02.475Z,98906.13
2023-01-29T23:25:44.755Z,98893.00
2023-01-29T23:28:15.079Z,98884.22
2023-01-29T23:30:45.435Z,98871.94
2023-01-29T23:33:14.198Z,98863.00
2023-01-29T23:35:43.130Z,98858.69
2023-01-29T23:38:11.665Z,98851.56
2023-01-29T23:40:40.130Z,98838.31
2023-01-29T23:43:08.788Z,98823.25
2023-01-29T23:45:38.732Z,98823.97
2023-01-29T23:48:07.721Z,98812.53
2023-01-29T23:50:36.234Z,98804.44
2023-01-29T23:53:04.821Z,98785.16
2023-01-29T23:55:33.396Z,98779.63
2023-01-29T23:58:01.956Z,98779.47
